Terminal Aerodrome Forecast
Issued by NWS

Home | Current Version | Previous Version | Graphics & Text | Print | Product List | Glossary Off
Versions: 1 2 3 4 5 6 7 8 9 10 11 12 13 14 15 16 17 18

864
FTUS43 KGRB 291736
TAFCWA
TAF
KCWA 291736Z 2918/3018 25010G20KT P6SM VCSH SCT025 OVC050
      TEMPO 2918/2920 BKN025
     FM292000 27012G18KT P6SM BKN035
     FM300100 28006KT P6SM SCT035
     FM301400 29008KT P6SM SCT030=

USA.gov is the U.S. government's official web portal to all federal, state and local government web resources and services.